sensor_id;sensor_type;location;lat;lon;timestamp;P1;durP1;ratioP1;P2;durP2;ratioP2
7334;SDS011;3708;42.632;23.378;2023-05-13T00:01:40;3.13;;;2.17;;
7334;SDS011;3708;42.632;23.378;2023-05-13T00:04:07;4.83;;;2.30;;
7334;SDS011;3708;42.632;23.378;2023-05-13T00:06:34;3.23;;;2.00;;
7334;SDS011;3708;42.632;23.378;2023-05-13T00:09:01;3.40;;;2.00;;
7334;SDS011;3708;42.632;23.378;2023-05-13T00:11:30;4.83;;;2.30;;
7334;SDS011;3708;42.632;23.378;2023-05-13T00:13:56;3.90;;;2.20;;
7334;SDS011;3708;42.632;23.378;2023-05-13T00:16:23;5.97;;;2.13;;
7334;SDS011;3708;42.632;23.378;2023-05-13T00:19:08;2.53;;;2.33;;
7334;SDS011;3708;42.632;23.378;2023-05-13T00:21:34;5.30;;;2.30;;
7334;SDS011;3708;42.632;23.378;2023-05-13T00:24:01;4.93;;;2.10;;
7334;SDS011;3708;42.632;23.378;2023-05-13T00:26:29;5.07;;;2.40;;
7334;SDS011;3708;42.632;23.378;2023-05-13T00:28:56;3.57;;;2.13;;
7334;SDS011;3708;42.632;23.378;2023-05-13T00:31:23;5.30;;;2.40;;
7334;SDS011;3708;42.632;23.378;2023-05-13T00:33:50;3.70;;;2.50;;
7334;SDS011;3708;42.632;23.378;2023-05-13T00:36:17;4.07;;;2.50;;
7334;SDS011;3708;42.632;23.378;2023-05-13T00:38:43;4.23;;;2.53;;
7334;SDS011;3708;42.632;23.378;2023-05-13T00:41:10;4.07;;;2.50;;
7334;SDS011;3708;42.632;23.378;2023-05-13T00:43:39;5.73;;;2.27;;
7334;SDS011;3708;42.632;23.378;2023-05-13T00:46:05;3.07;;;2.43;;
7334;SDS011;3708;42.632;23.378;2023-05-13T00:48:32;6.47;;;2.73;;
7334;SDS011;3708;42.632;23.378;2023-05-13T00:50:59;4.00;;;2.23;;
7334;SDS011;3708;42.632;23.378;2023-05-13T00:53:26;4.47;;;2.60;;
7334;SDS011;3708;42.632;23.378;2023-05-13T00:55:53;3.53;;;2.00;;
7334;SDS011;3708;42.632;23.378;2023-05-13T00:58:20;4.27;;;2.67;;
7334;SDS011;3708;42.632;23.378;2023-05-13T01:00:50;4.00;;;2.20;;
7334;SDS011;3708;42.632;23.378;2023-05-13T01:03:26;3.60;;;2.60;;
7334;SDS011;3708;42.632;23.378;2023-05-13T01:06:14;3.17;;;2.40;;
7334;SDS011;3708;42.632;23.378;2023-05-13T01:08:51;4.27;;;2.33;;
7334;SDS011;3708;42.632;23.378;2023-05-13T01:11:25;5.43;;;2.60;;
7334;SDS011;3708;42.632;23.378;2023-05-13T01:13:56;4.00;;;2.70;;
7334;SDS011;3708;42.632;23.378;2023-05-13T01:16:30;5.30;;;2.67;;
7334;SDS011;3708;42.632;23.378;2023-05-13T01:19:03;5.77;;;2.43;;
7334;SDS011;3708;42.632;23.378;2023-05-13T01:21:35;4.00;;;2.30;;
7334;SDS011;3708;42.632;23.378;2023-05-13T01:24:04;2.47;;;2.00;;
7334;SDS011;3708;42.632;23.378;2023-05-13T01:26:31;3.40;;;2.30;;
7334;SDS011;3708;42.632;23.378;2023-05-13T01:28:58;4.50;;;2.07;;
7334;SDS011;3708;42.632;23.378;2023-05-13T01:31:25;4.97;;;2.30;;
7334;SDS011;3708;42.632;23.378;2023-05-13T01:33:52;3.10;;;2.03;;
7334;SDS011;3708;42.632;23.378;2023-05-13T01:36:20;3.90;;;2.30;;
7334;SDS011;3708;42.632;23.378;2023-05-13T01:38:48;2.93;;;1.97;;
7334;SDS011;3708;42.632;23.378;2023-05-13T01:41:16;2.00;;;1.80;;
7334;SDS011;3708;42.632;23.378;2023-05-13T01:43:43;2.87;;;2.33;;
7334;SDS011;3708;42.632;23.378;2023-05-13T01:46:10;4.83;;;2.60;;
7334;SDS011;3708;42.632;23.378;2023-05-13T01:48:37;4.13;;;2.73;;
7334;SDS011;3708;42.632;23.378;2023-05-13T01:51:04;4.93;;;2.83;;
7334;SDS011;3708;42.632;23.378;2023-05-13T01:53:31;2.77;;;2.40;;
7334;SDS011;3708;42.632;23.378;2023-05-13T01:55:59;3.87;;;2.30;;
7334;SDS011;3708;42.632;23.378;2023-05-13T01:58:26;4.30;;;2.33;;
7334;SDS011;3708;42.632;23.378;2023-05-13T02:00:53;6.30;;;2.77;;
7334;SDS011;3708;42.632;23.378;2023-05-13T02:03:20;4.33;;;2.90;;
7334;SDS011;3708;42.632;23.378;2023-05-13T02:05:46;3.40;;;2.60;;
7334;SDS011;3708;42.632;23.378;2023-05-13T02:08:13;5.00;;;2.93;;
7334;SDS011;3708;42.632;23.378;2023-05-13T02:10:40;3.60;;;2.57;;
7334;SDS011;3708;42.632;23.378;2023-05-13T02:13:08;5.93;;;2.43;;
7334;SDS011;3708;42.632;23.378;2023-05-13T02:15:36;3.93;;;2.37;;
7334;SDS011;3708;42.632;23.378;2023-05-13T02:18:03;3.63;;;2.40;;
7334;SDS011;3708;42.632;23.378;2023-05-13T02:20:29;3.47;;;2.10;;
7334;SDS011;3708;42.632;23.378;2023-05-13T02:22:56;4.70;;;2.63;;
7334;SDS011;3708;42.632;23.378;2023-05-13T02:25:23;2.63;;;2.20;;
7334;SDS011;3708;42.632;23.378;2023-05-13T02:27:50;4.13;;;2.60;;
7334;SDS011;3708;42.632;23.378;2023-05-13T02:30:18;2.90;;;2.23;;
7334;SDS011;3708;42.632;23.378;2023-05-13T02:32:45;3.93;;;2.57;;
7334;SDS011;3708;42.632;23.378;2023-05-13T02:35:12;3.93;;;2.50;;
7334;SDS011;3708;42.632;23.378;2023-05-13T02:37:39;6.90;;;2.73;;
7334;SDS011;3708;42.632;23.378;2023-05-13T02:40:06;5.93;;;3.00;;
7334;SDS011;3708;42.632;23.378;2023-05-13T02:42:33;3.27;;;2.57;;
7334;SDS011;3708;42.632;23.378;2023-05-13T02:45:00;4.10;;;2.63;;
7334;SDS011;3708;42.632;23.378;2023-05-13T02:47:28;5.73;;;3.00;;
7334;SDS011;3708;42.632;23.378;2023-05-13T02:49:55;5.20;;;3.10;;
7334;SDS011;3708;42.632;23.378;2023-05-13T02:52:22;4.73;;;3.63;;
7334;SDS011;3708;42.632;23.378;2023-05-13T02:54:49;3.93;;;3.00;;
7334;SDS011;3708;42.632;23.378;2023-05-13T02:57:16;5.27;;;3.10;;
7334;SDS011;3708;42.632;23.378;2023-05-13T02:59:43;4.60;;;3.20;;
7334;SDS011;3708;42.632;23.378;2023-05-13T03:02:10;3.70;;;2.80;;
7334;SDS011;3708;42.632;23.378;2023-05-13T03:04:38;3.37;;;2.77;;
7334;SDS011;3708;42.632;23.378;2023-05-13T03:07:06;3.10;;;2.63;;
7334;SDS011;3708;42.632;23.378;2023-05-13T03:09:33;3.37;;;2.63;;
7334;SDS011;3708;42.632;23.378;2023-05-13T03:12:03;6.67;;;2.73;;
7334;SDS011;3708;42.632;23.378;2023-05-13T03:14:31;4.23;;;3.13;;
7334;SDS011;3708;42.632;23.378;2023-05-13T03:17:00;5.93;;;3.67;;
7334;SDS011;3708;42.632;23.378;2023-05-13T03:19:27;7.30;;;3.83;;
7334;SDS011;3708;42.632;23.378;2023-05-13T03:21:55;6.47;;;2.90;;
7334;SDS011;3708;42.632;23.378;2023-05-13T03:24:22;3.73;;;3.30;;
7334;SDS011;3708;42.632;23.378;2023-05-13T03:26:49;4.07;;;3.13;;
7334;SDS011;3708;42.632;23.378;2023-05-13T03:29:16;4.37;;;3.10;;
7334;SDS011;3708;42.632;23.378;2023-05-13T03:31:43;7.90;;;3.33;;
7334;SDS011;3708;42.632;23.378;2023-05-13T03:34:11;4.67;;;3.27;;
7334;SDS011;3708;42.632;23.378;2023-05-13T03:36:38;4.10;;;3.10;;
7334;SDS011;3708;42.632;23.378;2023-05-13T03:39:06;4.23;;;2.87;;
7334;SDS011;3708;42.632;23.378;2023-05-13T03:41:34;6.87;;;3.23;;
7334;SDS011;3708;42.632;23.378;2023-05-13T03:44:01;9.23;;;3.83;;
7334;SDS011;3708;42.632;23.378;2023-05-13T03:46:28;5.97;;;3.27;;
7334;SDS011;3708;42.632;23.378;2023-05-13T03:48:56;4.47;;;3.00;;
7334;SDS011;3708;42.632;23.378;2023-05-13T03:51:22;5.40;;;3.17;;
7334;SDS011;3708;42.632;23.378;2023-05-13T03:53:49;5.47;;;3.43;;
7334;SDS011;3708;42.632;23.378;2023-05-13T03:56:18;3.13;;;2.83;;
7334;SDS011;3708;42.632;23.378;2023-05-13T03:58:45;4.80;;;3.30;;
7334;SDS011;3708;42.632;23.378;2023-05-13T04:01:12;4.33;;;3.40;;
7334;SDS011;3708;42.632;23.378;2023-05-13T04:03:39;3.83;;;2.90;;
7334;SDS011;3708;42.632;23.378;2023-05-13T04:06:08;3.43;;;2.77;;
7334;SDS011;3708;42.632;23.378;2023-05-13T04:08:35;4.93;;;3.20;;
7334;SDS011;3708;42.632;23.378;2023-05-13T04:11:02;6.23;;;3.03;;
7334;SDS011;3708;42.632;23.378;2023-05-13T04:13:31;4.73;;;2.70;;
7334;SDS011;3708;42.632;23.378;2023-05-13T04:15:58;5.57;;;2.83;;
7334;SDS011;3708;42.632;23.378;2023-05-13T04:18:24;6.83;;;3.20;;
7334;SDS011;3708;42.632;23.378;2023-05-13T04:20:51;5.03;;;3.50;;
7334;SDS011;3708;42.632;23.378;2023-05-13T04:23:18;5.33;;;2.90;;
7334;SDS011;3708;42.632;23.378;2023-05-13T04:25:49;4.73;;;2.73;;
7334;SDS011;3708;42.632;23.378;2023-05-13T04:28:16;4.47;;;3.20;;
7334;SDS011;3708;42.632;23.378;2023-05-13T04:30:44;5.57;;;3.07;;
7334;SDS011;3708;42.632;23.378;2023-05-13T04:33:11;5.03;;;3.37;;
7334;SDS011;3708;42.632;23.378;2023-05-13T04:35:38;6.27;;;3.70;;
7334;SDS011;3708;42.632;23.378;2023-05-13T04:38:05;4.50;;;3.20;;
7334;SDS011;3708;42.632;23.378;2023-05-13T04:40:32;5.23;;;3.40;;
7334;SDS011;3708;42.632;23.378;2023-05-13T04:42:59;7.97;;;3.90;;
7334;SDS011;3708;42.632;23.378;2023-05-13T04:45:25;4.47;;;4.07;;
7334;SDS011;3708;42.632;23.378;2023-05-13T04:47:54;6.10;;;4.07;;
7334;SDS011;3708;42.632;23.378;2023-05-13T04:50:20;7.87;;;4.33;;
7334;SDS011;3708;42.632;23.378;2023-05-13T04:52:47;12.47;;;4.63;;
7334;SDS011;3708;42.632;23.378;2023-05-13T04:55:14;11.23;;;5.40;;
7334;SDS011;3708;42.632;23.378;2023-05-13T04:57:41;6.20;;;4.33;;
7334;SDS011;3708;42.632;23.378;2023-05-13T05:00:08;13.77;;;5.70;;
7334;SDS011;3708;42.632;23.378;2023-05-13T05:02:36;7.07;;;5.00;;
7334;SDS011;3708;42.632;23.378;2023-05-13T05:05:04;8.10;;;6.10;;
7334;SDS011;3708;42.632;23.378;2023-05-13T05:07:31;7.00;;;5.30;;
7334;SDS011;3708;42.632;23.378;2023-05-13T05:09:58;9.47;;;6.73;;
7334;SDS011;3708;42.632;23.378;2023-05-13T05:12:25;8.57;;;5.63;;
7334;SDS011;3708;42.632;23.378;2023-05-13T05:14:52;6.20;;;4.73;;
7334;SDS011;3708;42.632;23.378;2023-05-13T05:17:19;6.13;;;5.00;;
7334;SDS011;3708;42.632;23.378;2023-05-13T05:19:45;8.60;;;4.90;;
7334;SDS011;3708;42.632;23.378;2023-05-13T05:22:14;9.83;;;5.23;;
7334;SDS011;3708;42.632;23.378;2023-05-13T05:24:40;11.27;;;5.10;;
7334;SDS011;3708;42.632;23.378;2023-05-13T05:27:07;8.73;;;5.23;;
7334;SDS011;3708;42.632;23.378;2023-05-13T05:29:34;6.67;;;4.97;;
7334;SDS011;3708;42.632;23.378;2023-05-13T05:32:01;9.17;;;6.43;;
7334;SDS011;3708;42.632;23.378;2023-05-13T05:34:28;10.73;;;5.20;;
7334;SDS011;3708;42.632;23.378;2023-05-13T05:36:54;15.23;;;6.17;;
7334;SDS011;3708;42.632;23.378;2023-05-13T05:39:23;6.87;;;5.23;;
7334;SDS011;3708;42.632;23.378;2023-05-13T05:41:49;8.17;;;5.10;;
7334;SDS011;3708;42.632;23.378;2023-05-13T05:44:16;8.00;;;5.33;;
7334;SDS011;3708;42.632;23.378;2023-05-13T05:46:43;6.77;;;5.60;;
7334;SDS011;3708;42.632;23.378;2023-05-13T05:49:10;7.70;;;5.40;;
7334;SDS011;3708;42.632;23.378;2023-05-13T05:51:37;8.30;;;5.87;;
7334;SDS011;3708;42.632;23.378;2023-05-13T05:54:03;11.50;;;5.07;;
7334;SDS011;3708;42.632;23.378;2023-05-13T05:56:31;12.27;;;5.30;;
7334;SDS011;3708;42.632;23.378;2023-05-13T05:58:58;9.17;;;5.33;;
7334;SDS011;3708;42.632;23.378;2023-05-13T06:01:26;6.40;;;5.10;;
7334;SDS011;3708;42.632;23.378;2023-05-13T06:03:53;6.70;;;5.60;;
7334;SDS011;3708;42.632;23.378;2023-05-13T06:06:20;5.90;;;4.83;;
7334;SDS011;3708;42.632;23.378;2023-05-13T06:08:47;9.13;;;6.23;;
7334;SDS011;3708;42.632;23.378;2023-05-13T06:11:14;7.10;;;6.03;;
7334;SDS011;3708;42.632;23.378;2023-05-13T06:13:42;10.77;;;6.33;;
7334;SDS011;3708;42.632;23.378;2023-05-13T06:16:09;10.27;;;6.20;;
7334;SDS011;3708;42.632;23.378;2023-05-13T06:18:35;14.07;;;6.30;;
7334;SDS011;3708;42.632;23.378;2023-05-13T06:21:02;7.37;;;5.70;;
7334;SDS011;3708;42.632;23.378;2023-05-13T06:23:29;10.87;;;6.80;;
7334;SDS011;3708;42.632;23.378;2023-05-13T06:25:56;11.37;;;6.53;;
7334;SDS011;3708;42.632;23.378;2023-05-13T06:28:24;11.93;;;6.20;;
7334;SDS011;3708;42.632;23.378;2023-05-13T06:30:52;9.93;;;6.00;;
7334;SDS011;3708;42.632;23.378;2023-05-13T06:33:19;8.43;;;6.13;;
7334;SDS011;3708;42.632;23.378;2023-05-13T06:35:45;9.97;;;6.03;;
7334;SDS011;3708;42.632;23.378;2023-05-13T06:38:13;7.40;;;5.37;;
7334;SDS011;3708;42.632;23.378;2023-05-13T06:40:41;9.90;;;5.87;;
7334;SDS011;3708;42.632;23.378;2023-05-13T06:43:08;12.33;;;6.53;;
7334;SDS011;3708;42.632;23.378;2023-05-13T06:45:36;9.13;;;6.53;;
7334;SDS011;3708;42.632;23.378;2023-05-13T06:48:05;10.63;;;6.87;;
7334;SDS011;3708;42.632;23.378;2023-05-13T06:50:31;9.43;;;6.20;;
7334;SDS011;3708;42.632;23.378;2023-05-13T06:52:58;9.20;;;6.30;;
7334;SDS011;3708;42.632;23.378;2023-05-13T06:55:25;10.87;;;6.07;;
7334;SDS011;3708;42.632;23.378;2023-05-13T06:57:52;8.33;;;6.37;;
7334;SDS011;3708;42.632;23.378;2023-05-13T07:00:19;13.37;;;6.77;;
7334;SDS011;3708;42.632;23.378;2023-05-13T07:02:46;8.70;;;5.83;;
7334;SDS011;3708;42.632;23.378;2023-05-13T07:05:14;11.30;;;6.33;;
7334;SDS011;3708;42.632;23.378;2023-05-13T07:07:41;13.90;;;7.27;;
7334;SDS011;3708;42.632;23.378;2023-05-13T07:10:08;12.03;;;7.00;;
7334;SDS011;3708;42.632;23.378;2023-05-13T07:12:35;10.40;;;6.77;;
7334;SDS011;3708;42.632;23.378;2023-05-13T07:15:02;12.23;;;6.60;;
7334;SDS011;3708;42.632;23.378;2023-05-13T07:17:29;8.80;;;5.67;;
7334;SDS011;3708;42.632;23.378;2023-05-13T07:19:56;8.13;;;5.60;;
7334;SDS011;3708;42.632;23.378;2023-05-13T07:22:24;8.30;;;6.03;;
7334;SDS011;3708;42.632;23.378;2023-05-13T07:24:52;8.47;;;5.27;;
7334;SDS011;3708;42.632;23.378;2023-05-13T07:27:19;10.67;;;5.97;;
7334;SDS011;3708;42.632;23.378;2023-05-13T07:29:46;6.77;;;4.53;;
7334;SDS011;3708;42.632;23.378;2023-05-13T07:32:13;9.47;;;4.77;;
7334;SDS011;3708;42.632;23.378;2023-05-13T07:34:39;8.03;;;4.27;;
7334;SDS011;3708;42.632;23.378;2023-05-13T07:37:06;8.30;;;5.10;;
7334;SDS011;3708;42.632;23.378;2023-05-13T07:39:35;11.30;;;4.93;;
7334;SDS011;3708;42.632;23.378;2023-05-13T07:42:02;8.30;;;5.10;;
7334;SDS011;3708;42.632;23.378;2023-05-13T07:44:29;6.33;;;4.10;;
7334;SDS011;3708;42.632;23.378;2023-05-13T07:46:55;7.10;;;3.90;;
7334;SDS011;3708;42.632;23.378;2023-05-13T07:49:22;8.53;;;4.27;;
7334;SDS011;3708;42.632;23.378;2023-05-13T07:51:49;7.87;;;4.57;;
7334;SDS011;3708;42.632;23.378;2023-05-13T07:54:16;6.33;;;4.23;;
7334;SDS011;3708;42.632;23.378;2023-05-13T07:56:44;6.83;;;4.97;;
7334;SDS011;3708;42.632;23.378;2023-05-13T07:59:12;8.20;;;4.80;;
7334;SDS011;3708;42.632;23.378;2023-05-13T08:01:38;6.80;;;4.20;;
7334;SDS011;3708;42.632;23.378;2023-05-13T08:04:05;10.93;;;4.77;;
7334;SDS011;3708;42.632;23.378;2023-05-13T08:06:32;7.27;;;4.43;;
7334;SDS011;3708;42.632;23.378;2023-05-13T08:08:59;6.97;;;4.83;;
7334;SDS011;3708;42.632;23.378;2023-05-13T08:11:26;7.43;;;4.27;;
7334;SDS011;3708;42.632;23.378;2023-05-13T08:13:55;9.17;;;4.73;;
7334;SDS011;3708;42.632;23.378;2023-05-13T08:16:21;6.80;;;4.70;;
7334;SDS011;3708;42.632;23.378;2023-05-13T08:18:48;6.23;;;3.87;;
7334;SDS011;3708;42.632;23.378;2023-05-13T08:21:15;5.20;;;4.37;;
7334;SDS011;3708;42.632;23.378;2023-05-13T08:23:42;6.83;;;5.43;;
7334;SDS011;3708;42.632;23.378;2023-05-13T08:26:09;9.07;;;5.03;;
7334;SDS011;3708;42.632;23.378;2023-05-13T08:28:35;10.20;;;4.47;;
7334;SDS011;3708;42.632;23.378;2023-05-13T08:31:04;11.87;;;5.00;;
7334;SDS011;3708;42.632;23.378;2023-05-13T08:33:30;5.87;;;5.03;;
7334;SDS011;3708;42.632;23.378;2023-05-13T08:35:59;8.67;;;5.23;;
7334;SDS011;3708;42.632;23.378;2023-05-13T08:38:26;6.33;;;4.97;;
7334;SDS011;3708;42.632;23.378;2023-05-13T08:40:53;6.87;;;4.40;;
7334;SDS011;3708;42.632;23.378;2023-05-13T08:43:19;9.63;;;4.70;;
7334;SDS011;3708;42.632;23.378;2023-05-13T08:45:50;8.47;;;4.90;;
7334;SDS011;3708;42.632;23.378;2023-05-13T08:48:19;7.43;;;5.07;;
7334;SDS011;3708;42.632;23.378;2023-05-13T08:50:46;8.50;;;4.63;;
7334;SDS011;3708;42.632;23.378;2023-05-13T08:53:14;6.07;;;4.60;;
7334;SDS011;3708;42.632;23.378;2023-05-13T08:55:42;9.83;;;5.10;;
7334;SDS011;3708;42.632;23.378;2023-05-13T08:58:09;8.03;;;4.53;;
7334;SDS011;3708;42.632;23.378;2023-05-13T09:00:37;7.73;;;4.50;;
7334;SDS011;3708;42.632;23.378;2023-05-13T09:03:04;8.90;;;4.30;;
7334;SDS011;3708;42.632;23.378;2023-05-13T09:05:33;6.33;;;4.67;;
7334;SDS011;3708;42.632;23.378;2023-05-13T09:08:00;6.80;;;4.70;;
7334;SDS011;3708;42.632;23.378;2023-05-13T09:10:33;7.63;;;4.83;;
7334;SDS011;3708;42.632;23.378;2023-05-13T09:13:00;6.50;;;4.90;;
7334;SDS011;3708;42.632;23.378;2023-05-13T09:15:28;6.57;;;4.23;;
7334;SDS011;3708;42.632;23.378;2023-05-13T09:17:57;11.57;;;5.23;;
7334;SDS011;3708;42.632;23.378;2023-05-13T09:20:25;6.37;;;5.07;;
7334;SDS011;3708;42.632;23.378;2023-05-13T09:22:55;6.43;;;4.93;;
7334;SDS011;3708;42.632;23.378;2023-05-13T09:25:23;8.97;;;5.37;;
7334;SDS011;3708;42.632;23.378;2023-05-13T09:27:51;10.27;;;5.47;;
7334;SDS011;3708;42.632;23.378;2023-05-13T09:30:22;5.83;;;4.60;;
7334;SDS011;3708;42.632;23.378;2023-05-13T09:33:03;8.47;;;4.60;;
7334;SDS011;3708;42.632;23.378;2023-05-13T09:35:31;11.37;;;5.53;;
7334;SDS011;3708;42.632;23.378;2023-05-13T09:38:01;6.07;;;4.87;;
7334;SDS011;3708;42.632;23.378;2023-05-13T09:40:37;10.47;;;5.10;;
7334;SDS011;3708;42.632;23.378;2023-05-13T09:43:04;8.23;;;5.17;;
7334;SDS011;3708;42.632;23.378;2023-05-13T09:45:32;7.03;;;4.70;;
7334;SDS011;3708;42.632;23.378;2023-05-13T09:48:01;7.47;;;5.00;;
7334;SDS011;3708;42.632;23.378;2023-05-13T09:50:28;11.00;;;5.50;;
7334;SDS011;3708;42.632;23.378;2023-05-13T09:52:56;6.67;;;5.23;;
7334;SDS011;3708;42.632;23.378;2023-05-13T09:55:27;5.10;;;4.50;;
7334;SDS011;3708;42.632;23.378;2023-05-13T09:57:54;12.87;;;5.83;;
7334;SDS011;3708;42.632;23.378;2023-05-13T10:00:21;9.83;;;5.33;;
7334;SDS011;3708;42.632;23.378;2023-05-13T10:02:48;8.90;;;5.13;;
7334;SDS011;3708;42.632;23.378;2023-05-13T10:05:15;7.97;;;4.90;;
7334;SDS011;3708;42.632;23.378;2023-05-13T10:07:43;6.53;;;5.23;;
7334;SDS011;3708;42.632;23.378;2023-05-13T10:10:10;11.73;;;6.07;;
7334;SDS011;3708;42.632;23.378;2023-05-13T10:12:38;8.47;;;5.30;;
7334;SDS011;3708;42.632;23.378;2023-05-13T10:15:07;11.90;;;6.07;;
7334;SDS011;3708;42.632;23.378;2023-05-13T10:17:35;6.93;;;5.17;;
7334;SDS011;3708;42.632;23.378;2023-05-13T10:20:02;7.37;;;5.27;;
7334;SDS011;3708;42.632;23.378;2023-05-13T10:22:31;9.37;;;5.20;;
7334;SDS011;3708;42.632;23.378;2023-05-13T10:24:59;8.93;;;5.73;;
7334;SDS011;3708;42.632;23.378;2023-05-13T10:27:28;8.07;;;5.43;;
7334;SDS011;3708;42.632;23.378;2023-05-13T10:29:58;8.13;;;5.23;;
7334;SDS011;3708;42.632;23.378;2023-05-13T10:32:29;7.50;;;5.17;;
7334;SDS011;3708;42.632;23.378;2023-05-13T10:34:58;8.17;;;5.17;;
7334;SDS011;3708;42.632;23.378;2023-05-13T10:37:36;9.07;;;4.80;;
7334;SDS011;3708;42.632;23.378;2023-05-13T10:40:30;13.40;;;5.30;;
7334;SDS011;3708;42.632;23.378;2023-05-13T10:43:11;7.00;;;4.87;;
7334;SDS011;3708;42.632;23.378;2023-05-13T10:45:46;7.67;;;5.30;;
7334;SDS011;3708;42.632;23.378;2023-05-13T10:48:15;11.17;;;5.17;;
7334;SDS011;3708;42.632;23.378;2023-05-13T10:50:49;8.30;;;5.57;;
7334;SDS011;3708;42.632;23.378;2023-05-13T10:53:19;7.43;;;5.63;;
7334;SDS011;3708;42.632;23.378;2023-05-13T10:55:51;9.50;;;5.63;;
7334;SDS011;3708;42.632;23.378;2023-05-13T10:58:20;7.40;;;5.93;;
7334;SDS011;3708;42.632;23.378;2023-05-13T11:00:59;6.33;;;4.30;;
7334;SDS011;3708;42.632;23.378;2023-05-13T11:03:50;8.20;;;5.00;;
7334;SDS011;3708;42.632;23.378;2023-05-13T11:06:19;7.77;;;5.27;;
7334;SDS011;3708;42.632;23.378;2023-05-13T11:08:48;9.17;;;5.43;;
7334;SDS011;3708;42.632;23.378;2023-05-13T11:11:16;9.57;;;5.70;;
7334;SDS011;3708;42.632;23.378;2023-05-13T11:14:02;6.00;;;5.33;;
7334;SDS011;3708;42.632;23.378;2023-05-13T11:16:46;7.80;;;4.83;;
7334;SDS011;3708;42.632;23.378;2023-05-13T11:19:18;8.83;;;4.50;;
7334;SDS011;3708;42.632;23.378;2023-05-13T11:21:47;6.97;;;4.90;;
7334;SDS011;3708;42.632;23.378;2023-05-13T11:24:17;6.57;;;5.20;;
7334;SDS011;3708;42.632;23.378;2023-05-13T11:26:45;6.33;;;5.13;;
7334;SDS011;3708;42.632;23.378;2023-05-13T11:29:13;6.63;;;4.88;;
7334;SDS011;3708;42.632;23.378;2023-05-13T11:31:41;9.50;;;5.10;;
7334;SDS011;3708;42.632;23.378;2023-05-13T11:34:14;5.70;;;4.07;;
7334;SDS011;3708;42.632;23.378;2023-05-13T11:36:44;7.05;;;4.28;;
7334;SDS011;3708;42.632;23.378;2023-05-13T11:39:13;9.00;;;4.55;;
7334;SDS011;3708;42.632;23.378;2023-05-13T11:41:42;8.15;;;4.68;;
7334;SDS011;3708;42.632;23.378;2023-05-13T11:44:11;6.65;;;4.95;;
7334;SDS011;3708;42.632;23.378;2023-05-13T11:46:50;6.28;;;4.82;;
7334;SDS011;3708;42.632;23.378;2023-05-13T11:49:31;5.82;;;4.35;;
7334;SDS011;3708;42.632;23.378;2023-05-13T11:52:01;5.50;;;4.25;;
7334;SDS011;3708;42.632;23.378;2023-05-13T11:54:29;8.80;;;4.55;;
7334;SDS011;3708;42.632;23.378;2023-05-13T11:56:56;5.95;;;4.15;;
7334;SDS011;3708;42.632;23.378;2023-05-13T11:59:23;8.60;;;4.82;;
7334;SDS011;3708;42.632;23.378;2023-05-13T12:02:01;5.13;;;4.15;;
7334;SDS011;3708;42.632;23.378;2023-05-13T12:04:28;5.57;;;4.10;;
7334;SDS011;3708;42.632;23.378;2023-05-13T12:06:55;6.95;;;4.10;;
7334;SDS011;3708;42.632;23.378;2023-05-13T12:09:22;5.18;;;3.55;;
7334;SDS011;3708;42.632;23.378;2023-05-13T12:11:50;6.63;;;3.38;;
7334;SDS011;3708;42.632;23.378;2023-05-13T12:14:18;5.65;;;3.90;;
7334;SDS011;3708;42.632;23.378;2023-05-13T12:16:45;7.10;;;3.53;;
7334;SDS011;3708;42.632;23.378;2023-05-13T12:19:14;5.72;;;3.65;;
7334;SDS011;3708;42.632;23.378;2023-05-13T12:21:41;3.72;;;3.28;;
7334;SDS011;3708;42.632;23.378;2023-05-13T12:24:18;7.70;;;3.67;;
7334;SDS011;3708;42.632;23.378;2023-05-13T12:26:45;7.13;;;3.88;;
7334;SDS011;3708;42.632;23.378;2023-05-13T12:29:12;6.50;;;3.65;;
7334;SDS011;3708;42.632;23.378;2023-05-13T12:31:40;6.20;;;3.88;;
7334;SDS011;3708;42.632;23.378;2023-05-13T12:34:07;8.70;;;4.28;;
7334;SDS011;3708;42.632;23.378;2023-05-13T12:36:36;13.43;;;4.53;;
7334;SDS011;3708;42.632;23.378;2023-05-13T12:39:04;7.00;;;3.90;;
7334;SDS011;3708;42.632;23.378;2023-05-13T12:41:33;4.47;;;3.47;;
7334;SDS011;3708;42.632;23.378;2023-05-13T12:44:01;9.20;;;4.03;;
7334;SDS011;3708;42.632;23.378;2023-05-13T12:46:29;7.20;;;4.07;;
7334;SDS011;3708;42.632;23.378;2023-05-13T12:48:57;8.38;;;4.60;;
7334;SDS011;3708;42.632;23.378;2023-05-13T12:51:25;4.47;;;3.88;;
7334;SDS011;3708;42.632;23.378;2023-05-13T12:53:55;5.20;;;3.60;;
7334;SDS011;3708;42.632;23.378;2023-05-13T12:56:22;7.40;;;3.90;;
7334;SDS011;3708;42.632;23.378;2023-05-13T12:58:51;7.30;;;4.22;;
7334;SDS011;3708;42.632;23.378;2023-05-13T13:01:19;8.00;;;4.45;;
7334;SDS011;3708;42.632;23.378;2023-05-13T13:03:46;9.48;;;3.97;;
7334;SDS011;3708;42.632;23.378;2023-05-13T13:06:13;6.78;;;4.03;;
7334;SDS011;3708;42.632;23.378;2023-05-13T13:08:40;5.35;;;3.83;;
7334;SDS011;3708;42.632;23.378;2023-05-13T13:11:09;6.60;;;3.93;;
7334;SDS011;3708;42.632;23.378;2023-05-13T13:13:38;4.68;;;3.70;;
7334;SDS011;3708;42.632;23.378;2023-05-13T13:16:06;6.47;;;4.00;;
7334;SDS011;3708;42.632;23.378;2023-05-13T13:18:33;4.93;;;4.13;;
7334;SDS011;3708;42.632;23.378;2023-05-13T13:21:00;6.00;;;3.88;;
7334;SDS011;3708;42.632;23.378;2023-05-13T13:23:29;9.17;;;5.00;;
7334;SDS011;3708;42.632;23.378;2023-05-13T13:25:56;6.03;;;4.33;;
7334;SDS011;3708;42.632;23.378;2023-05-13T13:28:24;5.18;;;3.55;;
7334;SDS011;3708;42.632;23.378;2023-05-13T13:30:51;5.60;;;3.50;;
7334;SDS011;3708;42.632;23.378;2023-05-13T13:33:18;7.43;;;3.93;;
7334;SDS011;3708;42.632;23.378;2023-05-13T13:35:46;6.75;;;3.75;;
7334;SDS011;3708;42.632;23.378;2023-05-13T13:38:14;6.60;;;4.13;;
7334;SDS011;3708;42.632;23.378;2023-05-13T13:40:41;4.80;;;3.50;;
7334;SDS011;3708;42.632;23.378;2023-05-13T13:43:07;7.38;;;3.95;;
7334;SDS011;3708;42.632;23.378;2023-05-13T13:45:36;5.68;;;3.75;;
7334;SDS011;3708;42.632;23.378;2023-05-13T13:48:03;8.38;;;3.83;;
7334;SDS011;3708;42.632;23.378;2023-05-13T13:50:30;5.10;;;3.63;;
7334;SDS011;3708;42.632;23.378;2023-05-13T13:52:56;4.38;;;3.50;;
7334;SDS011;3708;42.632;23.378;2023-05-13T13:55:23;6.68;;;3.60;;
7334;SDS011;3708;42.632;23.378;2023-05-13T13:57:52;6.20;;;3.55;;
7334;SDS011;3708;42.632;23.378;2023-05-13T14:00:18;4.78;;;3.30;;
7334;SDS011;3708;42.632;23.378;2023-05-13T14:02:47;5.15;;;3.72;;
7334;SDS011;3708;42.632;23.378;2023-05-13T14:05:13;6.65;;;3.50;;
7334;SDS011;3708;42.632;23.378;2023-05-13T14:07:41;6.05;;;3.33;;
7334;SDS011;3708;42.632;23.378;2023-05-13T14:10:08;5.35;;;3.30;;
7334;SDS011;3708;42.632;23.378;2023-05-13T14:12:35;5.82;;;3.00;;
7334;SDS011;3708;42.632;23.378;2023-05-13T14:15:03;8.38;;;3.60;;
7334;SDS011;3708;42.632;23.378;2023-05-13T14:17:31;4.40;;;3.70;;
7334;SDS011;3708;42.632;23.378;2023-05-13T14:19:59;5.47;;;3.50;;
7334;SDS011;3708;42.632;23.378;2023-05-13T14:22:26;7.00;;;3.95;;
7334;SDS011;3708;42.632;23.378;2023-05-13T14:24:53;3.97;;;3.05;;
7334;SDS011;3708;42.632;23.378;2023-05-13T14:27:19;4.13;;;3.40;;
7334;SDS011;3708;42.632;23.378;2023-05-13T14:29:48;5.63;;;3.15;;
7334;SDS011;3708;42.632;23.378;2023-05-13T14:32:15;5.55;;;3.35;;
7334;SDS011;3708;42.632;23.378;2023-05-13T14:34:42;4.10;;;2.83;;
7334;SDS011;3708;42.632;23.378;2023-05-13T14:37:10;3.50;;;3.05;;
7334;SDS011;3708;42.632;23.378;2023-05-13T14:39:37;4.93;;;2.75;;
7334;SDS011;3708;42.632;23.378;2023-05-13T14:42:04;3.63;;;3.10;;
7334;SDS011;3708;42.632;23.378;2023-05-13T14:44:31;5.65;;;3.88;;
7334;SDS011;3708;42.632;23.378;2023-05-13T14:46:58;4.25;;;3.30;;
7334;SDS011;3708;42.632;23.378;2023-05-13T14:49:25;6.25;;;3.53;;
7334;SDS011;3708;42.632;23.378;2023-05-13T14:51:51;6.78;;;3.22;;
7334;SDS011;3708;42.632;23.378;2023-05-13T14:54:20;6.70;;;3.40;;
7334;SDS011;3708;42.632;23.378;2023-05-13T14:56:47;3.88;;;3.33;;
7334;SDS011;3708;42.632;23.378;2023-05-13T14:59:14;4.75;;;2.90;;
7334;SDS011;3708;42.632;23.378;2023-05-13T15:01:41;4.45;;;3.40;;
7334;SDS011;3708;42.632;23.378;2023-05-13T15:04:08;5.93;;;3.42;;
7334;SDS011;3708;42.632;23.378;2023-05-13T15:06:35;8.27;;;5.83;;